sensor_id;sensor_type;location;lat;lon;timestamp;temperature;humidity
17053;DHT22;8643;48.824;11.422;2022-12-29T00:01:07;2.10;99.90
17053;DHT22;8643;48.824;11.422;2022-12-29T00:11:21;2.10;99.90
17053;DHT22;8643;48.824;11.422;2022-12-29T00:13:51;2.10;99.90
17053;DHT22;8643;48.824;11.422;2022-12-29T00:16:40;2.10;99.90
17053;DHT22;8643;48.824;11.422;2022-12-29T00:22:09;2.20;99.90
17053;DHT22;8643;48.824;11.422;2022-12-29T00:27:45;2.20;99.90
17053;DHT22;8643;48.824;11.422;2022-12-29T00:33:22;2.10;99.90
17053;DHT22;8643;48.824;11.422;2022-12-29T00:36:15;2.10;99.90
17053;DHT22;8643;48.824;11.422;2022-12-29T00:44:25;2.20;99.90
17053;DHT22;8643;48.824;11.422;2022-12-29T00:52:00;2.00;99.90
17053;DHT22;8643;48.824;11.422;2022-12-29T00:57:02;2.00;99.90
17053;DHT22;8643;48.824;11.422;2022-12-29T00:59:41;1.90;99.90
17053;DHT22;8643;48.824;11.422;2022-12-29T01:07:16;1.90;99.90
17053;DHT22;8643;48.824;11.422;2022-12-29T01:15:14;2.30;99.90
17053;DHT22;8643;48.824;11.422;2022-12-29T01:20:14;1.50;99.90
17053;DHT22;8643;48.824;11.422;2022-12-29T01:40:19;2.50;99.90
17053;DHT22;8643;48.824;11.422;2022-12-29T01:45:20;2.40;99.90
17053;DHT22;8643;48.824;11.422;2022-12-29T01:47:52;2.40;99.90
17053;DHT22;8643;48.824;11.422;2022-12-29T01:50:27;2.40;99.90
17053;DHT22;8643;48.824;11.422;2022-12-29T01:53:05;2.40;99.90
17053;DHT22;8643;48.824;11.422;2022-12-29T01:55:40;2.30;99.90
17053;DHT22;8643;48.824;11.422;2022-12-29T01:58:13;2.40;99.90
17053;DHT22;8643;48.824;11.422;2022-12-29T02:03:17;2.40;99.90
17053;DHT22;8643;48.824;11.422;2022-12-29T02:05:53;2.40;99.90
17053;DHT22;8643;48.824;11.422;2022-12-29T02:08:27;2.50;99.90
17053;DHT22;8643;48.824;11.422;2022-12-29T02:16:11;2.70;99.90
17053;DHT22;8643;48.824;11.422;2022-12-29T02:18:53;2.60;99.90
17053;DHT22;8643;48.824;11.422;2022-12-29T02:21:59;2.70;99.90
17053;DHT22;8643;48.824;11.422;2022-12-29T02:25:15;2.70;99.90
17053;DHT22;8643;48.824;11.422;2022-12-29T02:28:33;2.70;99.90
17053;DHT22;8643;48.824;11.422;2022-12-29T02:31:31;2.70;99.90
17053;DHT22;8643;48.824;11.422;2022-12-29T02:34:20;2.70;99.90
17053;DHT22;8643;48.824;11.422;2022-12-29T02:37:00;2.70;99.90
17053;DHT22;8643;48.824;11.422;2022-12-29T02:42:21;2.80;99.90
17053;DHT22;8643;48.824;11.422;2022-12-29T02:45:03;2.80;99.90
17053;DHT22;8643;48.824;11.422;2022-12-29T02:47:41;2.80;99.90
17053;DHT22;8643;48.824;11.422;2022-12-29T02:50:20;2.80;99.90
17053;DHT22;8643;48.824;11.422;2022-12-29T02:52:58;2.90;99.90
17053;DHT22;8643;48.824;11.422;2022-12-29T02:58:16;2.90;99.90
17053;DHT22;8643;48.824;11.422;2022-12-29T03:01:01;2.90;99.90
17053;DHT22;8643;48.824;11.422;2022-12-29T03:03:52;2.90;99.90
17053;DHT22;8643;48.824;11.422;2022-12-29T03:06:33;2.90;99.90
17053;DHT22;8643;48.824;11.422;2022-12-29T03:09:16;2.90;99.90
17053;DHT22;8643;48.824;11.422;2022-12-29T03:11:59;2.90;99.90
17053;DHT22;8643;48.824;11.422;2022-12-29T03:15:08;3.00;99.90
17053;DHT22;8643;48.824;11.422;2022-12-29T03:18:06;3.10;99.90
17053;DHT22;8643;48.824;11.422;2022-12-29T03:20:49;3.20;99.90
17053;DHT22;8643;48.824;11.422;2022-12-29T03:23:25;3.20;99.90
17053;DHT22;8643;48.824;11.422;2022-12-29T03:25:58;3.20;99.90
17053;DHT22;8643;48.824;11.422;2022-12-29T03:36:20;3.10;99.90
17053;DHT22;8643;48.824;11.422;2022-12-29T03:38:59;3.10;99.90
17053;DHT22;8643;48.824;11.422;2022-12-29T03:41:34;3.00;99.90
17053;DHT22;8643;48.824;11.422;2022-12-29T04:09:09;2.90;99.90
17053;DHT22;8643;48.824;11.422;2022-12-29T04:21:47;3.10;99.90
17053;DHT22;8643;48.824;11.422;2022-12-29T04:29:36;3.20;99.90
17053;DHT22;8643;48.824;11.422;2022-12-29T04:32:17;3.30;99.90
17053;DHT22;8643;48.824;11.422;2022-12-29T04:50:35;3.40;99.90
17053;DHT22;8643;48.824;11.422;2022-12-29T04:55:49;3.40;99.90
17053;DHT22;8643;48.824;11.422;2022-12-29T05:05:53;3.50;99.90
17053;DHT22;8643;48.824;11.422;2022-12-29T05:18:27;3.50;99.90
17053;DHT22;8643;48.824;11.422;2022-12-29T05:20:57;3.50;99.90
17053;DHT22;8643;48.824;11.422;2022-12-29T05:23:29;3.50;99.90
17053;DHT22;8643;48.824;11.422;2022-12-29T05:31:24;3.30;99.90
17053;DHT22;8643;48.824;11.422;2022-12-29T05:36:22;3.60;99.90
17053;DHT22;8643;48.824;11.422;2022-12-29T05:41:26;3.00;99.90
17053;DHT22;8643;48.824;11.422;2022-12-29T06:06:14;2.80;99.90
17053;DHT22;8643;48.824;11.422;2022-12-29T06:11:14;2.60;99.90
17053;DHT22;8643;48.824;11.422;2022-12-29T06:13:49;2.50;99.90
17053;DHT22;8643;48.824;11.422;2022-12-29T06:18:48;2.30;99.90
17053;DHT22;8643;48.824;11.422;2022-12-29T06:21:16;2.20;99.90
17053;DHT22;8643;48.824;11.422;2022-12-29T06:23:45;2.20;99.90
17053;DHT22;8643;48.824;11.422;2022-12-29T06:26:15;2.10;99.90
17053;DHT22;8643;48.824;11.422;2022-12-29T06:28:45;2.00;99.90
17053;DHT22;8643;48.824;11.422;2022-12-29T06:31:13;1.10;99.90
17053;DHT22;8643;48.824;11.422;2022-12-29T06:46:56;0.70;99.90
17053;DHT22;8643;48.824;11.422;2022-12-29T06:49:25;1.50;99.90
17053;DHT22;8643;48.824;11.422;2022-12-29T06:51:53;1.50;99.90
17053;DHT22;8643;48.824;11.422;2022-12-29T06:56:51;1.50;99.90
17053;DHT22;8643;48.824;11.422;2022-12-29T06:59:20;1.50;99.90
17053;DHT22;8643;48.824;11.422;2022-12-29T07:09:14;1.50;99.90
17053;DHT22;8643;48.824;11.422;2022-12-29T07:11:43;1.40;99.90
17053;DHT22;8643;48.824;11.422;2022-12-29T07:14:12;1.40;99.90
17053;DHT22;8643;48.824;11.422;2022-12-29T07:16:41;1.50;99.90
17053;DHT22;8643;48.824;11.422;2022-12-29T07:19:09;1.50;99.90
17053;DHT22;8643;48.824;11.422;2022-12-29T07:21:37;2.40;99.90
17053;DHT22;8643;48.824;11.422;2022-12-29T07:26:42;1.80;99.90
17053;DHT22;8643;48.824;11.422;2022-12-29T07:29:11;1.80;99.90
17053;DHT22;8643;48.824;11.422;2022-12-29T07:31:40;2.00;99.90
17053;DHT22;8643;48.824;11.422;2022-12-29T07:36:37;2.10;99.90
17053;DHT22;8643;48.824;11.422;2022-12-29T07:41:34;2.40;99.90
17053;DHT22;8643;48.824;11.422;2022-12-29T07:46:32;0.00;99.90
17053;DHT22;8643;48.824;11.422;2022-12-29T07:49:20;2.80;99.90
17053;DHT22;8643;48.824;11.422;2022-12-29T07:59:15;3.00;99.90
17053;DHT22;8643;48.824;11.422;2022-12-29T08:01:44;3.00;99.90
17053;DHT22;8643;48.824;11.422;2022-12-29T08:04:13;3.10;99.90
17053;DHT22;8643;48.824;11.422;2022-12-29T08:14:16;3.40;99.90
17053;DHT22;8643;48.824;11.422;2022-12-29T08:16:46;3.60;99.90
17053;DHT22;8643;48.824;11.422;2022-12-29T08:19:15;3.70;99.90
17053;DHT22;8643;48.824;11.422;2022-12-29T08:21:43;3.90;99.90
17053;DHT22;8643;48.824;11.422;2022-12-29T08:24:11;4.10;99.90
17053;DHT22;8643;48.824;11.422;2022-12-29T08:26:39;4.20;99.90
17053;DHT22;8643;48.824;11.422;2022-12-29T08:31:37;4.30;99.90
17053;DHT22;8643;48.824;11.422;2022-12-29T08:34:07;4.50;99.90
17053;DHT22;8643;48.824;11.422;2022-12-29T08:36:35;4.40;99.90
17053;DHT22;8643;48.824;11.422;2022-12-29T08:39:04;4.40;99.90
17053;DHT22;8643;48.824;11.422;2022-12-29T08:46:29;4.60;99.90
17053;DHT22;8643;48.824;11.422;2022-12-29T08:51:28;4.80;99.90
17053;DHT22;8643;48.824;11.422;2022-12-29T08:53:56;4.90;99.90
17053;DHT22;8643;48.824;11.422;2022-12-29T08:56:25;5.00;99.90
17053;DHT22;8643;48.824;11.422;2022-12-29T08:58:56;5.10;99.90
17053;DHT22;8643;48.824;11.422;2022-12-29T09:06:45;5.70;99.90
17053;DHT22;8643;48.824;11.422;2022-12-29T09:09:13;5.80;99.90
17053;DHT22;8643;48.824;11.422;2022-12-29T09:11:42;5.50;99.90
17053;DHT22;8643;48.824;11.422;2022-12-29T09:14:11;6.00;99.90
17053;DHT22;8643;48.824;11.422;2022-12-29T09:19:26;6.10;99.90
17053;DHT22;8643;48.824;11.422;2022-12-29T09:21:55;6.10;99.90
17053;DHT22;8643;48.824;11.422;2022-12-29T09:36:47;7.00;99.90
17053;DHT22;8643;48.824;11.422;2022-12-29T09:39:16;7.20;99.90
17053;DHT22;8643;48.824;11.422;2022-12-29T09:41:49;7.40;99.90
17053;DHT22;8643;48.824;11.422;2022-12-29T09:44:31;7.60;99.90
17053;DHT22;8643;48.824;11.422;2022-12-29T09:49:49;7.90;99.90
17053;DHT22;8643;48.824;11.422;2022-12-29T09:54:59;8.80;99.90
17053;DHT22;8643;48.824;11.422;2022-12-29T09:57:42;8.40;99.90
17053;DHT22;8643;48.824;11.422;2022-12-29T10:00:18;8.60;99.90
17053;DHT22;8643;48.824;11.422;2022-12-29T10:02:51;8.50;99.90
17053;DHT22;8643;48.824;11.422;2022-12-29T10:05:33;8.50;99.90
17053;DHT22;8643;48.824;11.422;2022-12-29T10:08:22;8.50;99.90
17053;DHT22;8643;48.824;11.422;2022-12-29T10:11:06;8.50;99.90
17053;DHT22;8643;48.824;11.422;2022-12-29T10:13:56;8.60;99.90
17053;DHT22;8643;48.824;11.422;2022-12-29T10:16:48;8.70;99.90
17053;DHT22;8643;48.824;11.422;2022-12-29T10:19:53;8.80;99.90
17053;DHT22;8643;48.824;11.422;2022-12-29T10:22:38;8.80;99.90
17053;DHT22;8643;48.824;11.422;2022-12-29T10:28:00;9.10;99.90
17053;DHT22;8643;48.824;11.422;2022-12-29T10:30:32;9.20;99.90
17053;DHT22;8643;48.824;11.422;2022-12-29T10:33:05;9.30;99.90
17053;DHT22;8643;48.824;11.422;2022-12-29T10:35:40;9.30;99.90
17053;DHT22;8643;48.824;11.422;2022-12-29T10:38:13;9.60;99.90
17053;DHT22;8643;48.824;11.422;2022-12-29T10:40:53;9.80;99.90
17053;DHT22;8643;48.824;11.422;2022-12-29T10:43:29;10.00;99.90
17053;DHT22;8643;48.824;11.422;2022-12-29T10:46:03;10.30;99.90
17053;DHT22;8643;48.824;11.422;2022-12-29T10:48:35;10.40;99.90
17053;DHT22;8643;48.824;11.422;2022-12-29T10:51:05;10.40;99.90
17053;DHT22;8643;48.824;11.422;2022-12-29T10:53:40;10.50;99.90
17053;DHT22;8643;48.824;11.422;2022-12-29T10:56:17;10.50;99.90
17053;DHT22;8643;48.824;11.422;2022-12-29T10:58:59;10.50;99.90
17053;DHT22;8643;48.824;11.422;2022-12-29T11:01:49;10.50;99.90
17053;DHT22;8643;48.824;11.422;2022-12-29T11:04:36;10.70;99.90
17053;DHT22;8643;48.824;11.422;2022-12-29T11:07:16;10.70;99.90
17053;DHT22;8643;48.824;11.422;2022-12-29T11:09:53;10.70;99.90
17053;DHT22;8643;48.824;11.422;2022-12-29T11:12:24;10.90;99.90
17053;DHT22;8643;48.824;11.422;2022-12-29T11:15:15;10.70;99.90
17053;DHT22;8643;48.824;11.422;2022-12-29T11:17:46;10.70;99.90
17053;DHT22;8643;48.824;11.422;2022-12-29T11:20:33;10.70;99.90
17053;DHT22;8643;48.824;11.422;2022-12-29T11:23:20;10.70;99.90
17053;DHT22;8643;48.824;11.422;2022-12-29T11:26:17;10.80;99.90
17053;DHT22;8643;48.824;11.422;2022-12-29T11:29:04;11.00;99.90
17053;DHT22;8643;48.824;11.422;2022-12-29T11:31:50;11.10;99.90
17053;DHT22;8643;48.824;11.422;2022-12-29T11:34:22;11.40;99.90
17053;DHT22;8643;48.824;11.422;2022-12-29T11:36:57;11.20;99.90
17053;DHT22;8643;48.824;11.422;2022-12-29T11:39:35;11.40;99.90
17053;DHT22;8643;48.824;11.422;2022-12-29T11:42:13;11.50;99.90
17053;DHT22;8643;48.824;11.422;2022-12-29T11:44:44;11.60;99.90
17053;DHT22;8643;48.824;11.422;2022-12-29T11:47:25;11.70;99.90
17053;DHT22;8643;48.824;11.422;2022-12-29T11:49:59;11.60;99.90
17053;DHT22;8643;48.824;11.422;2022-12-29T11:52:32;11.80;99.90
17053;DHT22;8643;48.824;11.422;2022-12-29T11:57:46;11.30;99.90
17053;DHT22;8643;48.824;11.422;2022-12-29T12:00:17;11.10;99.90
17053;DHT22;8643;48.824;11.422;2022-12-29T12:02:55;11.10;99.90
17053;DHT22;8643;48.824;11.422;2022-12-29T12:05:36;11.10;99.90
17053;DHT22;8643;48.824;11.422;2022-12-29T12:08:11;11.10;99.90
17053;DHT22;8643;48.824;11.422;2022-12-29T12:10:52;11.10;99.90
17053;DHT22;8643;48.824;11.422;2022-12-29T12:13:30;11.10;99.90
17053;DHT22;8643;48.824;11.422;2022-12-29T12:16:07;11.20;99.90
17053;DHT22;8643;48.824;11.422;2022-12-29T12:21:23;11.30;99.90
17053;DHT22;8643;48.824;11.422;2022-12-29T12:24:15;11.20;99.90
17053;DHT22;8643;48.824;11.422;2022-12-29T12:26:56;11.10;99.90
17053;DHT22;8643;48.824;11.422;2022-12-29T12:29:35;11.20;99.90
17053;DHT22;8643;48.824;11.422;2022-12-29T12:32:13;11.10;99.90
17053;DHT22;8643;48.824;11.422;2022-12-29T12:34:49;11.10;99.90
17053;DHT22;8643;48.824;11.422;2022-12-29T12:37:43;11.20;99.90
17053;DHT22;8643;48.824;11.422;2022-12-29T12:40:58;11.30;99.90
17053;DHT22;8643;48.824;11.422;2022-12-29T12:43:44;11.20;99.90
17053;DHT22;8643;48.824;11.422;2022-12-29T12:49:40;11.30;99.90
17053;DHT22;8643;48.824;11.422;2022-12-29T12:52:29;11.40;99.90
17053;DHT22;8643;48.824;11.422;2022-12-29T12:57:58;11.90;99.90
17053;DHT22;8643;48.824;11.422;2022-12-29T13:00:43;12.20;99.90
17053;DHT22;8643;48.824;11.422;2022-12-29T13:03:26;12.30;99.90
17053;DHT22;8643;48.824;11.422;2022-12-29T13:06:18;12.30;99.90
17053;DHT22;8643;48.824;11.422;2022-12-29T13:09:16;12.20;99.90
17053;DHT22;8643;48.824;11.422;2022-12-29T13:12:06;12.10;99.90
17053;DHT22;8643;48.824;11.422;2022-12-29T13:17:28;11.70;99.90
17053;DHT22;8643;48.824;11.422;2022-12-29T13:20:11;11.60;99.90
17053;DHT22;8643;48.824;11.422;2022-12-29T13:22:57;11.50;99.90
17053;DHT22;8643;48.824;11.422;2022-12-29T13:25:37;11.50;99.90
17053;DHT22;8643;48.824;11.422;2022-12-29T13:28:16;11.30;99.90
17053;DHT22;8643;48.824;11.422;2022-12-29T13:30:56;11.20;99.90
17053;DHT22;8643;48.824;11.422;2022-12-29T13:33:38;11.20;99.90
17053;DHT22;8643;48.824;11.422;2022-12-29T13:39:02;11.00;99.90
17053;DHT22;8643;48.824;11.422;2022-12-29T13:41:44;11.00;99.90
17053;DHT22;8643;48.824;11.422;2022-12-29T13:44:20;11.00;99.90
17053;DHT22;8643;48.824;11.422;2022-12-29T13:46:53;11.00;99.90
17053;DHT22;8643;48.824;11.422;2022-12-29T13:51:55;10.90;99.90
17053;DHT22;8643;48.824;11.422;2022-12-29T13:54:35;11.00;99.90
17053;DHT22;8643;48.824;11.422;2022-12-29T13:57:15;10.80;99.90
17053;DHT22;8643;48.824;11.422;2022-12-29T13:59:59;10.80;99.90
17053;DHT22;8643;48.824;11.422;2022-12-29T14:02:46;10.70;99.90
17053;DHT22;8643;48.824;11.422;2022-12-29T14:05:32;10.70;99.90
17053;DHT22;8643;48.824;11.422;2022-12-29T14:10:35;10.70;99.90
17053;DHT22;8643;48.824;11.422;2022-12-29T14:13:10;10.70;99.90
17053;DHT22;8643;48.824;11.422;2022-12-29T14:15:43;10.70;99.90
17053;DHT22;8643;48.824;11.422;2022-12-29T14:18:15;10.70;99.90
17053;DHT22;8643;48.824;11.422;2022-12-29T14:20:51;10.70;99.90
17053;DHT22;8643;48.824;11.422;2022-12-29T14:23:38;10.70;99.90
17053;DHT22;8643;48.824;11.422;2022-12-29T14:26:18;10.70;99.90
17053;DHT22;8643;48.824;11.422;2022-12-29T14:29:43;10.60;99.90
17053;DHT22;8643;48.824;11.422;2022-12-29T14:32:36;10.50;99.90
17053;DHT22;8643;48.824;11.422;2022-12-29T14:40:51;10.50;99.90
17053;DHT22;8643;48.824;11.422;2022-12-29T14:43:24;10.40;99.90
17053;DHT22;8643;48.824;11.422;2022-12-29T14:45:58;10.40;99.90
17053;DHT22;8643;48.824;11.422;2022-12-29T14:48:34;10.40;99.90
17053;DHT22;8643;48.824;11.422;2022-12-29T14:51:29;10.20;99.90
17053;DHT22;8643;48.824;11.422;2022-12-29T14:57:17;10.00;99.90
17053;DHT22;8643;48.824;11.422;2022-12-29T14:59:54;9.90;99.90
17053;DHT22;8643;48.824;11.422;2022-12-29T15:02:33;9.80;99.90
17053;DHT22;8643;48.824;11.422;2022-12-29T15:05:19;12.60;99.90
17053;DHT22;8643;48.824;11.422;2022-12-29T15:07:55;11.30;99.90
17053;DHT22;8643;48.824;11.422;2022-12-29T15:10:27;9.80;99.90
17053;DHT22;8643;48.824;11.422;2022-12-29T15:13:13;9.80;99.90
17053;DHT22;8643;48.824;11.422;2022-12-29T15:15:45;9.80;99.90
17053;DHT22;8643;48.824;11.422;2022-12-29T15:18:28;9.80;99.90
17053;DHT22;8643;48.824;11.422;2022-12-29T15:20:59;9.70;99.90
17053;DHT22;8643;48.824;11.422;2022-12-29T15:23:30;9.80;99.90
17053;DHT22;8643;48.824;11.422;2022-12-29T15:26:02;9.80;99.90
17053;DHT22;8643;48.824;11.422;2022-12-29T15:28:38;9.70;99.90
17053;DHT22;8643;48.824;11.422;2022-12-29T15:31:12;9.60;99.90
17053;DHT22;8643;48.824;11.422;2022-12-29T15:33:43;9.50;99.90
17053;DHT22;8643;48.824;11.422;2022-12-29T15:36:18;9.40;99.90
17053;DHT22;8643;48.824;11.422;2022-12-29T15:38:48;9.30;99.90
17053;DHT22;8643;48.824;11.422;2022-12-29T15:41:25;9.10;99.90
17053;DHT22;8643;48.824;11.422;2022-12-29T15:44:08;9.00;99.90
17053;DHT22;8643;48.824;11.422;2022-12-29T15:46:46;9.00;99.90
17053;DHT22;8643;48.824;11.422;2022-12-29T15:51:44;8.90;99.90
17053;DHT22;8643;48.824;11.422;2022-12-29T15:54:15;11.60;99.90
17053;DHT22;8643;48.824;11.422;2022-12-29T15:59:23;8.50;99.90
17053;DHT22;8643;48.824;11.422;2022-12-29T16:01:56;8.20;99.90
17053;DHT22;8643;48.824;11.422;2022-12-29T16:04:29;8.10;99.90
17053;DHT22;8643;48.824;11.422;2022-12-29T16:07:27;7.90;99.90
17053;DHT22;8643;48.824;11.422;2022-12-29T16:10:05;7.80;99.90
17053;DHT22;8643;48.824;11.422;2022-12-29T16:12:49;7.80;99.90
17053;DHT22;8643;48.824;11.422;2022-12-29T16:15:18;6.70;99.90
17053;DHT22;8643;48.824;11.422;2022-12-29T16:17:50;7.60;99.90
17053;DHT22;8643;48.824;11.422;2022-12-29T16:20:25;7.70;99.90
17053;DHT22;8643;48.824;11.422;2022-12-29T16:25:32;8.70;99.90
17053;DHT22;8643;48.824;11.422;2022-12-29T16:28:15;7.30;99.90
17053;DHT22;8643;48.824;11.422;2022-12-29T16:30:57;7.10;99.90
17053;DHT22;8643;48.824;11.422;2022-12-29T16:33:37;7.00;99.90
17053;DHT22;8643;48.824;11.422;2022-12-29T16:39:20;6.60;99.90
17053;DHT22;8643;48.824;11.422;2022-12-29T16:44:56;6.50;99.90
17053;DHT22;8643;48.824;11.422;2022-12-29T16:48:10;6.50;99.90
17053;DHT22;8643;48.824;11.422;2022-12-29T16:53:19;6.30;99.90
17053;DHT22;8643;48.824;11.422;2022-12-29T16:55:53;6.20;99.90
17053;DHT22;8643;48.824;11.422;2022-12-29T16:58:26;6.20;99.90
17053;DHT22;8643;48.824;11.422;2022-12-29T17:01:00;6.10;99.90
17053;DHT22;8643;48.824;11.422;2022-12-29T17:03:34;6.10;99.90
17053;DHT22;8643;48.824;11.422;2022-12-29T17:06:09;6.00;99.90
17053;DHT22;8643;48.824;11.422;2022-12-29T17:08:43;6.00;99.90
17053;DHT22;8643;48.824;11.422;2022-12-29T17:11:21;5.90;99.90
17053;DHT22;8643;48.824;11.422;2022-12-29T17:17:15;5.80;99.90
17053;DHT22;8643;48.824;11.422;2022-12-29T17:19:48;5.80;99.90
17053;DHT22;8643;48.824;11.422;2022-12-29T17:22:22;7.40;99.90
17053;DHT22;8643;48.824;11.422;2022-12-29T17:24:55;5.90;99.90
17053;DHT22;8643;48.824;11.422;2022-12-29T17:27:27;5.90;99.90
17053;DHT22;8643;48.824;11.422;2022-12-29T17:30:01;5.80;99.90
17053;DHT22;8643;48.824;11.422;2022-12-29T17:32:32;5.80;99.90
17053;DHT22;8643;48.824;11.422;2022-12-29T17:37:35;5.80;99.90
17053;DHT22;8643;48.824;11.422;2022-12-29T17:40:06;5.80;99.90
17053;DHT22;8643;48.824;11.422;2022-12-29T17:42:42;5.80;99.90
17053;DHT22;8643;48.824;11.422;2022-12-29T17:47:45;5.70;99.90
17053;DHT22;8643;48.824;11.422;2022-12-29T17:55:20;5.60;99.90
17053;DHT22;8643;48.824;11.422;2022-12-29T17:58:15;5.60;99.90
17053;DHT22;8643;48.824;11.422;2022-12-29T18:03:18;5.50;99.90
17053;DHT22;8643;48.824;11.422;2022-12-29T18:08:18;5.50;99.90
17053;DHT22;8643;48.824;11.422;2022-12-29T18:13:19;5.60;99.90
17053;DHT22;8643;48.824;11.422;2022-12-29T18:20:52;5.70;99.90
17053;DHT22;8643;48.824;11.422;2022-12-29T18:23:23;5.80;99.90
17053;DHT22;8643;48.824;11.422;2022-12-29T18:25:54;5.80;99.90
17053;DHT22;8643;48.824;11.422;2022-12-29T18:28:27;5.80;99.90
17053;DHT22;8643;48.824;11.422;2022-12-29T18:30:58;5.80;99.90
17053;DHT22;8643;48.824;11.422;2022-12-29T18:33:29;5.70;99.90
17053;DHT22;8643;48.824;11.422;2022-12-29T18:35:59;5.70;99.90
17053;DHT22;8643;48.824;11.422;2022-12-29T18:38:29;5.70;99.90
17053;DHT22;8643;48.824;11.422;2022-12-29T18:40:58;5.60;99.90
17053;DHT22;8643;48.824;11.422;2022-12-29T18:43:27;5.70;99.90
17053;DHT22;8643;48.824;11.422;2022-12-29T18:45:55;5.70;99.90
17053;DHT22;8643;48.824;11.422;2022-12-29T18:48:23;5.70;99.90
17053;DHT22;8643;48.824;11.422;2022-12-29T18:50:53;5.70;99.90
17053;DHT22;8643;48.824;11.422;2022-12-29T18:53:23;5.70;99.90
17053;DHT22;8643;48.824;11.422;2022-12-29T18:55:53;5.70;99.90
17053;DHT22;8643;48.824;11.422;2022-12-29T18:58:23;5.70;99.90
17053;DHT22;8643;48.824;11.422;2022-12-29T19:00:59;5.80;99.90
17053;DHT22;8643;48.824;11.422;2022-12-29T19:13:26;6.30;99.90
17053;DHT22;8643;48.824;11.422;2022-12-29T19:15:56;6.40;99.90
17053;DHT22;8643;48.824;11.422;2022-12-29T19:18:26;6.40;99.90
17053;DHT22;8643;48.824;11.422;2022-12-29T19:21:13;5.20;99.90
17053;DHT22;8643;48.824;11.422;2022-12-29T19:23:41;6.40;99.90
17053;DHT22;8643;48.824;11.422;2022-12-29T19:26:29;8.10;99.90
17053;DHT22;8643;48.824;11.422;2022-12-29T19:29:00;6.40;99.90
17053;DHT22;8643;48.824;11.422;2022-12-29T19:33:59;6.20;99.90
17053;DHT22;8643;48.824;11.422;2022-12-29T19:36:30;6.20;99.90
17053;DHT22;8643;48.824;11.422;2022-12-29T19:38:59;6.10;99.90
17053;DHT22;8643;48.824;11.422;2022-12-29T19:41:28;6.10;99.90
17053;DHT22;8643;48.824;11.422;2022-12-29T19:51:25;4.70;99.90
17053;DHT22;8643;48.824;11.422;2022-12-29T20:01:23;6.00;99.90
17053;DHT22;8643;48.824;11.422;2022-12-29T20:08:49;5.90;99.90
17053;DHT22;8643;48.824;11.422;2022-12-29T20:11:18;6.00;99.90
17053;DHT22;8643;48.824;11.422;2022-12-29T20:16:18;6.50;99.90
17053;DHT22;8643;48.824;11.422;2022-12-29T20:21:18;5.90;99.90
17053;DHT22;8643;48.824;11.422;2022-12-29T20:23:51;6.00;99.90
17053;DHT22;8643;48.824;11.422;2022-12-29T20:26:24;6.00;99.90
17053;DHT22;8643;48.824;11.422;2022-12-29T20:28:54;5.90;99.90
17053;DHT22;8643;48.824;11.422;2022-12-29T20:38:56;5.90;99.90
17053;DHT22;8643;48.824;11.422;2022-12-29T20:41:28;5.90;99.90
17053;DHT22;8643;48.824;11.422;2022-12-29T20:43:57;6.00;99.90
17053;DHT22;8643;48.824;11.422;2022-12-29T20:46:27;6.00;99.90
17053;DHT22;8643;48.824;11.422;2022-12-29T20:49:05;6.00;99.90
17053;DHT22;8643;48.824;11.422;2022-12-29T20:54:23;6.10;99.90
17053;DHT22;8643;48.824;11.422;2022-12-29T20:56:52;6.20;99.90
17053;DHT22;8643;48.824;11.422;2022-12-29T21:04:24;6.20;99.90
17053;DHT22;8643;48.824;11.422;2022-12-29T21:06:52;6.20;99.90
17053;DHT22;8643;48.824;11.422;2022-12-29T21:09:21;6.20;99.90
17053;DHT22;8643;48.824;11.422;2022-12-29T21:11:49;6.90;99.90
17053;DHT22;8643;48.824;11.422;2022-12-29T21:19:16;6.30;99.90
17053;DHT22;8643;48.824;11.422;2022-12-29T21:24:13;6.20;99.90
17053;DHT22;8643;48.824;11.422;2022-12-29T21:36:37;6.30;99.90
17053;DHT22;8643;48.824;11.422;2022-12-29T21:44:03;6.20;99.90
17053;DHT22;8643;48.824;11.422;2022-12-29T21:51:49;6.20;99.90
17053;DHT22;8643;48.824;11.422;2022-12-29T21:54:21;6.10;99.90
17053;DHT22;8643;48.824;11.422;2022-12-29T21:57:10;5.80;99.90
17053;DHT22;8643;48.824;11.422;2022-12-29T22:00:00;6.20;99.90
17053;DHT22;8643;48.824;11.422;2022-12-29T22:02:48;6.20;99.90
17053;DHT22;8643;48.824;11.422;2022-12-29T22:11:08;6.30;99.90
17053;DHT22;8643;48.824;11.422;2022-12-29T22:16:24;6.40;99.90
17053;DHT22;8643;48.824;11.422;2022-12-29T22:18:54;6.40;99.90
17053;DHT22;8643;48.824;11.422;2022-12-29T22:21:22;6.30;99.90
17053;DHT22;8643;48.824;11.422;2022-12-29T22:31:21;6.50;99.90
17053;DHT22;8643;48.824;11.422;2022-12-29T22:33:56;6.40;99.90
17053;DHT22;8643;48.824;11.422;2022-12-29T22:36:26;6.50;99.90
17053;DHT22;8643;48.824;11.422;2022-12-29T22:41:24;6.60;99.90
17053;DHT22;8643;48.824;11.422;2022-12-29T22:51:20;6.70;99.90
17053;DHT22;8643;48.824;11.422;2022-12-29T22:53:49;6.10;99.90
17053;DHT22;8643;48.824;11.422;2022-12-29T22:56:18;6.70;99.90
17053;DHT22;8643;48.824;11.422;2022-12-29T22:58:47;6.80;99.90
17053;DHT22;8643;48.824;11.422;2022-12-29T23:03:48;6.90;99.90
17053;DHT22;8643;48.824;11.422;2022-12-29T23:08:47;6.90;99.90
17053;DHT22;8643;48.824;11.422;2022-12-29T23:18:43;6.80;99.90
17053;DHT22;8643;48.824;11.422;2022-12-29T23:21:14;6.70;99.90
17053;DHT22;8643;48.824;11.422;2022-12-29T23:23:43;6.70;99.90
17053;DHT22;8643;48.824;11.422;2022-12-29T23:26:25;5.80;99.90
17053;DHT22;8643;48.824;11.422;2022-12-29T23:28:55;6.70;99.90
17053;DHT22;8643;48.824;11.422;2022-12-29T23:33:56;6.80;99.90
17053;DHT22;8643;48.824;11.422;2022-12-29T23:36:25;6.60;99.90
17053;DHT22;8643;48.824;11.422;2022-12-29T23:38:54;6.60;99.90
17053;DHT22;8643;48.824;11.422;2022-12-29T23:41:25;6.60;99.90
17053;DHT22;8643;48.824;11.422;2022-12-29T23:43:54;6.60;99.90
17053;DHT22;8643;48.824;11.422;2022-12-29T23:46:24;6.50;99.90
17053;DHT22;8643;48.824;11.422;2022-12-29T23:56:23;6.40;99.90
